createdAt,value
2023-02-14T00:02:54.089Z,122.55072
2023-02-14T00:07:55.989Z,124.11696
2023-02-14T00:12:57.729Z,122.03468
2023-02-14T00:17:59.646Z,122.03468
2023-02-14T00:23:01.676Z,119.49858
2023-02-14T00:28:03.449Z,123.59184
2023-02-14T00:33:04.883Z,119
2023-02-14T00:38:06.765Z,121.52161
2023-02-14T00:43:08.218Z,122.03468
2023-02-14T00:48:09.769Z,126.78932
2023-02-14T00:53:11.579Z,127.8806
2023-02-14T00:58:13.701Z,131.23404
2023-02-14T01:03:15.446Z,138.32177
2023-02-14T01:08:17.463Z,140.80511
2023-02-14T01:13:19.218Z,147.30033
2023-02-14T01:18:21.119Z,141.4359
2023-02-14T01:23:23.075Z,145.96721
2023-02-14T01:28:25.000Z,139.55556
2023-02-14T01:33:26.832Z,134.71207
2023-02-14T01:38:29.181Z,134.71207
2023-02-14T01:43:31.131Z,133.53846
2023-02-14T01:48:32.862Z,137.10345
2023-02-14T01:53:34.700Z,137.10345
2023-02-14T01:58:36.546Z,128.43114
2023-02-14T02:03:38.340Z,135.30435
2023-02-14T02:08:40.498Z,128.43114
2023-02-14T02:13:42.372Z,125.71091
2023-02-14T02:18:44.227Z,125.17647
2023-02-14T02:23:46.051Z,122.55072
2023-02-14T02:28:47.956Z,122.03468
2023-02-14T02:33:49.690Z,113.69697
2023-02-14T02:38:51.652Z,110.48649
2023-02-14T02:43:53.415Z,110.93767
2023-02-14T02:48:55.093Z,110.93767
2023-02-14T02:53:56.700Z,112.30601
2023-02-14T02:58:58.147Z,112.76712
2023-02-14T03:03:59.733Z,115.58774
2023-02-14T03:09:01.621Z,117.03371
2023-02-14T03:14:03.103Z,114.63712
2023-02-14T03:19:04.665Z,116.06704
2023-02-14T03:24:06.510Z,120
2023-02-14T03:29:07.970Z,119.49858
2023-02-14T03:34:09.408Z,119
2023-02-14T03:39:11.459Z,118.0113
2023-02-14T03:44:13.228Z,118.50425
2023-02-14T03:49:15.000Z,116.54902
2023-02-14T03:54:16.984Z,112.30601
2023-02-14T03:59:18.745Z,110.93767
2023-02-14T04:04:20.274Z,112.76712
2023-02-14T04:09:22.366Z,110.93767
2023-02-14T04:14:24.079Z,109.5914
2023-02-14T04:19:25.877Z,109.14745
2023-02-14T04:24:27.973Z,106.53298
2023-02-14T04:29:29.759Z,107.39523
2023-02-14T04:34:31.391Z,108.70588
2023-02-14T04:39:33.698Z,107.82979
2023-02-14T04:44:35.363Z,105.67979
2023-02-14T04:49:37.167Z,105.25654
2023-02-14T04:59:51.115Z,108.70588
2023-02-14T05:04:52.890Z,107.82979
2023-02-14T05:09:54.393Z,104.41667
2023-02-14T05:14:56.104Z,104.83551
2023-02-14T05:19:57.944Z,101.54476
2023-02-14T05:24:59.452Z,107.39523
2023-02-14T05:30:01.173Z,114.16575
2023-02-14T05:35:02.668Z,116.54902
2023-02-14T05:40:04.761Z,122.03468
2023-02-14T05:45:06.352Z,125.71091
2023-02-14T05:50:07.975Z,122.03468
2023-02-14T05:55:09.511Z,137.71069
2023-02-14T06:00:11.114Z,130.10272
2023-02-14T06:05:12.559Z,135.30435
2023-02-14T06:10:14.299Z,133.53846
2023-02-14T06:15:16.147Z,141.4359
2023-02-14T06:20:17.724Z,146.63158
2023-02-14T06:25:19.303Z,132.95706
2023-02-14T06:30:21.133Z,131.23404
2023-02-14T06:35:22.712Z,131.23404
2023-02-14T06:40:24.499Z,126.78932
2023-02-14T06:45:25.953Z,123.59184
2023-02-14T06:50:27.583Z,132.95706
2023-02-14T06:55:29.371Z,126.78932
2023-02-14T07:00:31.328Z,143.35275
2023-02-14T07:05:33.265Z,130.66667
2023-02-14T07:10:35.252Z,141.4359
2023-02-14T07:15:36.772Z,150.71141
2023-02-14T07:20:38.290Z,141.4359
2023-02-14T07:25:39.956Z,150.71141
2023-02-14T07:30:41.411Z,148.65116
2023-02-14T07:35:42.902Z,166.38267
2023-02-14T07:40:44.661Z,154.9589
2023-02-14T07:45:46.573Z,128.98498
2023-02-14T07:50:48.129Z,143.35275
2023-02-14T07:55:49.944Z,140.80511
2023-02-14T08:00:51.569Z,145.96721
2023-02-14T08:05:53.042Z,141.4359
2023-02-14T08:10:55.125Z,139.55556
2023-02-14T08:15:57.025Z,144.65147
2023-02-14T08:20:58.906Z,140.80511
2023-02-14T08:26:00.579Z,160.14035
2023-02-14T08:31:02.751Z,158.63415
2023-02-14T08:36:04.581Z,169.64103
2023-02-14T08:41:08.839Z,147.30033
2023-02-14T08:46:11.454Z,151.40741
2023-02-14T08:51:13.292Z,152.10811
2023-02-14T08:56:15.104Z,144.65147
2023-02-14T09:01:17.343Z,147.30033
2023-02-14T09:06:19.222Z,150.71141
2023-02-14T09:11:21.227Z,173.85075
2023-02-14T09:16:23.256Z,168.81752
2023-02-14T09:21:25.398Z,194.4065
2023-02-14T09:26:27.196Z,197.49794
2023-02-14T09:31:29.320Z,219
2023-02-14T09:36:31.189Z,210.66667
2023-02-14T09:41:33.308Z,211.82609
2023-02-14T09:46:35.327Z,224
2023-02-14T09:51:37.105Z,258.28571
2023-02-14T09:56:50.810Z,250.46766
2023-02-14T10:01:53.641Z,222.73303
2023-02-14T10:06:55.477Z,216.56637
2023-02-14T10:11:57.476Z,280.61202
2023-02-14T10:16:59.139Z,284.33149
2023-02-14T10:22:00.718Z,346.61438
2023-02-14T10:27:02.625Z,346.61438
2023-02-14T10:32:04.398Z,306.35294
2023-02-14T10:37:05.946Z,390.37681
2023-02-14T10:42:07.863Z,393.63504
2023-02-14T10:47:09.763Z,384
2023-02-14T10:52:11.406Z,530.66667
2023-02-14T10:57:13.367Z,636.13483
2023-02-14T11:02:15.288Z,504
2023-02-14T11:07:17.177Z,377.80282
2023-02-14T11:12:19.252Z,432.88889
2023-02-14T11:17:21.074Z,489.13274
2023-02-14T11:22:22.928Z,660.27907
2023-02-14T11:27:24.811Z,599.31915
2023-02-14T11:32:26.914Z,754.52632
2023-02-14T11:37:28.701Z,1410.66667
2023-02-14T11:42:30.675Z,744
2023-02-14T11:47:32.666Z,906.5
2023-02-14T11:52:34.428Z,863.40299
2023-02-14T11:57:36.086Z,1024.70175
2023-02-14T12:02:38.096Z,628.44444
2023-02-14T12:07:40.052Z,1484
2023-02-14T12:12:42.063Z,2510.66667
2023-02-14T12:17:44.292Z,1997.33333
2023-02-14T12:22:46.171Z,1344
2023-02-14T12:27:48.049Z,1006.06897
2023-02-14T12:32:50.195Z,1344
2023-02-14T12:38:02.765Z,1704
2023-02-14T12:43:05.959Z,1608.86486
2023-02-14T12:48:07.952Z,1312.88889
2023-02-14T12:53:09.513Z,1810.66667
2023-02-14T12:58:11.180Z,2313.23077
2023-02-14T13:03:12.913Z,1755.76471
2023-02-14T13:08:14.473Z,3567.52941
2023-02-14T13:13:16.256Z,4344
2023-02-14T13:18:18.097Z,2313.23077
2023-02-14T13:23:20.000Z,2510.66667
2023-02-14T13:28:21.939Z,1997.33333
2023-02-14T13:33:23.735Z,2622.26087
2023-02-14T13:38:25.719Z,2622.26087
2023-02-14T13:43:28.173Z,4682.46154
2023-02-14T13:48:30.815Z,8744
2023-02-14T13:53:32.625Z,3366.22222
2023-02-14T13:58:34.436Z,1608.86486
2023-02-14T14:03:36.379Z,2144
2023-02-14T14:08:38.543Z,1931.09677
2023-02-14T14:13:40.508Z,1106.26415
2023-02-14T14:18:42.288Z,1376.55814
2023-02-14T14:23:44.342Z,403.70149
2023-02-14T14:28:46.295Z,384
2023-02-14T14:33:48.409Z,336.35669
2023-02-14T14:38:50.306Z,319.60976
2023-02-14T14:43:52.265Z,414.22901
2023-02-14T14:48:54.148Z,484.35088
2023-02-14T14:53:56.089Z,677.33333
2023-02-14T14:58:57.981Z,620.92308
2023-02-14T15:03:59.548Z,695.21951
2023-02-14T15:09:01.107Z,498.95495
2023-02-14T15:14:02.792Z,695.21951
2023-02-14T15:19:04.907Z,799.55556
2023-02-14T15:24:06.369Z,677.33333
2023-02-14T15:29:08.039Z,811.60563
2023-02-14T15:34:09.997Z,695.21951
2023-02-14T15:39:11.558Z,599.31915
2023-02-14T15:44:13.398Z,553.90099
2023-02-14T15:49:15.086Z,525.13208
2023-02-14T15:54:17.167Z,519.70093
2023-02-14T15:59:18.939Z,365.91781
2023-02-14T16:04:20.752Z,461.64706
2023-02-14T16:09:22.707Z,357.42282
2023-02-14T16:14:24.587Z,346.61438
2023-02-14T16:19:26.691Z,403.70149
2023-02-14T16:24:28.418Z,308.49704
2023-02-14T16:29:29.899Z,410.66667
2023-02-14T16:34:31.915Z,377.80282
2023-02-14T16:39:33.717Z,380.87943
2023-02-14T16:44:35.885Z,363.04762
2023-02-14T16:49:37.997Z,278.78261
2023-02-14T16:54:39.936Z,290.06742
2023-02-14T16:59:41.797Z,241.58454
2023-02-14T17:04:43.694Z,252
2023-02-14T17:09:45.317Z,247.44828
2023-02-14T17:14:47.269Z,255.11111
2023-02-14T17:19:50.894Z,226.56881
2023-02-14T17:24:56.866Z,234.56604
2023-02-14T17:29:59.262Z,252
2023-02-14T17:35:00.845Z,211.82609
2023-02-14T17:40:02.597Z,201.74059
2023-02-14T17:45:04.663Z,193.39271
2023-02-14T17:50:06.350Z,182.75969
2023-02-14T17:55:08.138Z,193.39271
2023-02-14T18:00:11.728Z,184.625
2023-02-14T18:05:13.673Z,166.38267
2023-02-14T18:10:15.147Z,154.9589
2023-02-14T18:15:16.933Z,134.12346
2023-02-14T18:20:18.817Z,134.71207
2023-02-14T18:25:20.577Z,159.38462
2023-02-14T18:30:22.119Z,152.81356
2023-02-14T18:35:23.856Z,152.10811
2023-02-14T18:40:25.713Z,131.80488
2023-02-14T18:45:28.204Z,134.71207
2023-02-14T18:50:29.838Z,141.4359
2023-02-14T18:55:31.427Z,142.07074
2023-02-14T19:00:32.897Z,135.90031
2023-02-14T19:05:36.883Z,136.5
2023-02-14T19:10:38.726Z,132.3792
2023-02-14T19:15:40.560Z,118.0113
2023-02-14T19:20:42.027Z,110.48649
2023-02-14T19:25:43.509Z,119.49858
2023-02-14T19:30:45.058Z,128.43114
2023-02-14T19:35:46.632Z,144.65147
2023-02-14T19:40:48.093Z,151.40741
2023-02-14T19:45:49.882Z,159.38462
2023-02-14T19:50:51.609Z,156.41379
2023-02-14T19:55:53.041Z,156.41379
2023-02-14T20:00:55.858Z,157.14879
2023-02-14T20:05:58.636Z,179.1145
2023-02-14T20:11:00.787Z,180.92308
2023-02-14T20:16:02.598Z,245.96078
2023-02-14T20:21:04.155Z,273.41176
2023-02-14T20:26:05.697Z,244.4878
2023-02-14T20:31:07.353Z,240.15385
2023-02-14T20:36:09.245Z,250.46766
2023-02-14T20:41:11.033Z,253.54774
2023-02-14T20:46:13.172Z,240.15385
2023-02-14T20:51:15.089Z,225.27854
2023-02-14T21:01:27.630Z,226.56881
2023-02-14T21:06:29.631Z,217.77778
2023-02-14T21:11:31.236Z,207.24786
2023-02-14T21:16:32.957Z,212.99563
2023-02-14T21:21:35.108Z,184.625
2023-02-14T21:26:37.011Z,193.39271
2023-02-14T21:31:39.092Z,187.47826
2023-02-14T21:36:40.992Z,183.68872
2023-02-14T21:41:42.765Z,170.47059
2023-02-14T21:46:44.966Z,167.18841
2023-02-14T21:51:47.160Z,161.66784
2023-02-14T21:56:49.020Z,168
2023-02-14T22:01:50.512Z,147.97351
2023-02-14T22:06:52.384Z,134.12346
2023-02-14T22:11:54.140Z,128.98498
2023-02-14T22:16:56.107Z,124.64516
2023-02-14T22:21:57.780Z,124.64516
2023-02-14T22:26:59.684Z,143.35275
2023-02-14T22:32:01.708Z,150.71141
2023-02-14T22:37:03.428Z,145.30719
2023-02-14T22:42:04.902Z,139.55556
2023-02-14T22:47:06.668Z,134.71207
2023-02-14T22:52:08.287Z,145.30719
2023-02-14T22:57:09.808Z,152.10811
2023-02-14T23:02:11.301Z,155.68385
2023-02-14T23:07:12.851Z,158.63415
2023-02-14T23:12:14.580Z,151.40741
2023-02-14T23:17:16.237Z,150.02007
2023-02-14T23:22:17.921Z,147.30033
2023-02-14T23:27:19.441Z,154.9589
2023-02-14T23:32:21.182Z,194.4065
2023-02-14T23:37:22.964Z,202.82353
2023-02-14T23:42:24.757Z,195.42857
2023-02-14T23:47:26.931Z,237.33333
2023-02-14T23:52:29.012Z,284.33149
2023-02-14T23:57:30.821Z,338.87179
